LiveATC.Net - Listen to live air traffic control over the Internet!

ICAO: LHDC  IATA: DEB   Airport: Debrecen Airport
City: Debrecen
Country: Hungary   Continent: Europe
LHDC METAR Weather: LHDC 232245Z 14003KT 5000 BR SCT008 OVC043 M01/M02 Q1005 NOSIG
LHDC Flight Activity (FlightAware)
LHDC Info/Tower
Feed Status: UP   Listeners: 0
Listen right in your browser - requires Flash (in browser, requires Flash)
Click here to listen with your own player (launches your MP3 player)
LHDC Info/Tower Audio Archives
Debrecen Info/Tower125.900


Unauthorized use prohibited. See Terms of Service

Find LiveATC Audio Streams

Airport/ARTCC Code

Frequency Search
(e.g., 124.400, 128.75)
Site-wide search

Browse LiveATC Feeds
LiveATC Coverage Map
Top 50 LiveATC Feeds
Bad Weather Areas

Offer a LiveATC Feed
Press Inquiries

LiveATC on iPhone
LiveATC on Android

Windows Phone
Windows 8/10

LiveATC Mobile
(Mobile browser)

ATC Audio Archives
Interesting Recordings

LiveATC Forums

Home Page
Make a Donation
Terms of Use
Privacy Policy

Canadian Air Freqs


FAA Airport Status
Nat'l Airspace Status
Arrival Demand Charts

Server Software By: